This is the latest recevied weather packets stored in our database for station/object WA4TPR. If no packets are shown the sender has not sent any weather packets the latest 10 day(s).
| Time | Temp. | Humidity | Pressure | Rain* | Wind** | Luminosity | Snow |
|---|---|---|---|---|---|---|---|
| 1777767013 | 21.11° C | 99% | 1015.9 hPa | 0 mm | - | 0 W/m² | - |
| 1777766711 | 21.11° C | 99% | 1016 hPa | 0 mm | - | 0 W/m² | - |
| 1777766408 | 21.11° C | 99% | 1015.8 hPa | 0 mm | - | 0 W/m² | - |
| 1777766104 | 21.11° C | 99% | 1016.3 hPa | 0 mm | - | 0 W/m² | - |
| 1777765802 | 21.11° C | 99% | 1016.2 hPa | 0 mm | - | 1 W/m² | - |
| 1777765498 | 21.11° C | 99% | 1016 hPa | 0 mm | - | 2 W/m² | - |
| 1777765195 | 21.11° C | 99% | 1016.1 hPa | 0 mm | - | 3 W/m² | - |
| 1777764890 | 21.67° C | 99% | 1016 hPa | 0 mm | - | 3 W/m² | - |
| 1777764587 | 21.67° C | 99% | 1015.5 hPa | 0 mm | - | 7 W/m² | - |
| 1777764284 | 21.67° C | 98% | 1015.3 hPa | 0 mm | - | 8 W/m² | - |
| 1777763981 | 21.67° C | 98% | 1015.6 hPa | 0 mm | - | 15 W/m² | - |
| 1777763678 | 21.67° C | 97% | 1015.5 hPa | 0 mm | - | 14 W/m² | - |
| 1777763376 | 21.67° C | 97% | 1015.4 hPa | 0 mm | - | 8 W/m² | - |
| 1777763074 | 21.67° C | 96% | 1015.6 hPa | 1.27 mm | - | 9 W/m² | - |
| 1777762772 | 21.67° C | 95% | 1015.7 hPa | 7.11 mm | - | 7 W/m² | - |
| 1777762467 | 22.22° C | 93% | 1016 hPa | 6.1 mm | - | 6 W/m² | - |
| 1777762165 | 22.78° C | 91% | 1015.8 hPa | 0 mm | - | 6 W/m² | - |
| 1777761861 | 22.78° C | 89% | 1015.8 hPa | 0 mm | - | 10 W/m² | - |
| 1777761558 | 23.33° C | 86% | 1015.7 hPa | 0 mm | - | 13 W/m² | - |
| 1777761256 | 24.44° C | 80% | 1015.9 hPa | 0 mm | - | 13 W/m² | - |
| 1777760954 | 25.56° C | 76% | 1016 hPa | 0 mm | - | 14 W/m² | - |
| 1777760650 | 26.67° C | 75% | 1015.3 hPa | 0 mm | - | 14 W/m² | - |
| 1777760345 | 28.33° C | 72% | 1015.2 hPa | 0 mm | - | 7 W/m² | - |
| 1777760042 | 28.89° C | 68% | 1014.9 hPa | 0 mm | - | 6 W/m² | - |
| 1777759740 | 28.89° C | 70% | 1014.8 hPa | 0 mm | - | 9 W/m² | - |
* Rain latest hour (hover to see other rain measurements)
** Current wind speed in m/s (hover to see current wind gust speed)